sensor_id;sensor_type;location;lat;lon;timestamp;P1;durP1;ratioP1;P2;durP2;ratioP2
16689;SDS011;8458;52.220;9.884;2023-10-13T00:00:11;6.07;;;5.73;;
16689;SDS011;8458;52.220;9.884;2023-10-13T00:02:50;6.13;;;5.63;;
16689;SDS011;8458;52.220;9.884;2023-10-13T00:05:17;5.97;;;5.57;;
16689;SDS011;8458;52.220;9.884;2023-10-13T00:07:44;6.17;;;5.60;;
16689;SDS011;8458;52.220;9.884;2023-10-13T00:10:12;6.00;;;5.40;;
16689;SDS011;8458;52.220;9.884;2023-10-13T00:12:38;5.47;;;5.07;;
16689;SDS011;8458;52.220;9.884;2023-10-13T00:15:06;6.27;;;5.63;;
16689;SDS011;8458;52.220;9.884;2023-10-13T00:17:38;6.23;;;5.73;;
16689;SDS011;8458;52.220;9.884;2023-10-13T00:20:07;6.10;;;5.60;;
16689;SDS011;8458;52.220;9.884;2023-10-13T00:22:38;6.47;;;6.07;;
16689;SDS011;8458;52.220;9.884;2023-10-13T00:25:06;5.87;;;5.47;;
16689;SDS011;8458;52.220;9.884;2023-10-13T00:27:37;6.00;;;5.60;;
16689;SDS011;8458;52.220;9.884;2023-10-13T00:30:08;6.40;;;5.93;;
16689;SDS011;8458;52.220;9.884;2023-10-13T00:32:43;6.30;;;5.80;;
16689;SDS011;8458;52.220;9.884;2023-10-13T00:35:12;6.63;;;6.23;;
16689;SDS011;8458;52.220;9.884;2023-10-13T00:37:49;7.00;;;6.50;;
16689;SDS011;8458;52.220;9.884;2023-10-13T00:40:18;6.87;;;6.30;;
16689;SDS011;8458;52.220;9.884;2023-10-13T00:43:05;6.87;;;6.37;;
16689;SDS011;8458;52.220;9.884;2023-10-13T00:45:48;6.67;;;6.17;;
16689;SDS011;8458;52.220;9.884;2023-10-13T00:48:22;7.17;;;6.67;;
16689;SDS011;8458;52.220;9.884;2023-10-13T00:50:53;7.07;;;6.50;;
16689;SDS011;8458;52.220;9.884;2023-10-13T00:53:22;6.87;;;6.43;;
16689;SDS011;8458;52.220;9.884;2023-10-13T00:55:50;6.87;;;6.37;;
16689;SDS011;8458;52.220;9.884;2023-10-13T00:58:16;7.50;;;6.90;;
16689;SDS011;8458;52.220;9.884;2023-10-13T01:00:48;7.00;;;6.50;;
16689;SDS011;8458;52.220;9.884;2023-10-13T01:03:22;6.77;;;6.37;;
16689;SDS011;8458;52.220;9.884;2023-10-13T01:05:52;7.37;;;6.87;;
16689;SDS011;8458;52.220;9.884;2023-10-13T01:08:30;7.63;;;7.07;;
16689;SDS011;8458;52.220;9.884;2023-10-13T01:10:59;7.87;;;7.33;;
16689;SDS011;8458;52.220;9.884;2023-10-13T01:13:25;7.87;;;7.47;;
16689;SDS011;8458;52.220;9.884;2023-10-13T01:15:53;8.30;;;7.73;;
16689;SDS011;8458;52.220;9.884;2023-10-13T01:18:19;8.13;;;7.63;;
16689;SDS011;8458;52.220;9.884;2023-10-13T01:20:45;8.53;;;8.03;;
16689;SDS011;8458;52.220;9.884;2023-10-13T01:23:18;8.87;;;8.30;;
16689;SDS011;8458;52.220;9.884;2023-10-13T01:25:44;8.77;;;8.13;;
16689;SDS011;8458;52.220;9.884;2023-10-13T01:28:11;8.70;;;8.20;;
16689;SDS011;8458;52.220;9.884;2023-10-13T01:30:40;9.20;;;8.60;;
16689;SDS011;8458;52.220;9.884;2023-10-13T01:33:07;9.73;;;9.20;;
16689;SDS011;8458;52.220;9.884;2023-10-13T01:35:34;10.50;;;9.63;;
16689;SDS011;8458;52.220;9.884;2023-10-13T01:38:12;10.20;;;9.53;;
16689;SDS011;8458;52.220;9.884;2023-10-13T01:40:39;11.53;;;10.73;;
16689;SDS011;8458;52.220;9.884;2023-10-13T01:43:07;11.13;;;10.40;;
16689;SDS011;8458;52.220;9.884;2023-10-13T01:45:36;11.23;;;10.47;;
16689;SDS011;8458;52.220;9.884;2023-10-13T01:48:14;11.90;;;11.10;;
16689;SDS011;8458;52.220;9.884;2023-10-13T01:50:42;10.80;;;10.20;;
16689;SDS011;8458;52.220;9.884;2023-10-13T01:53:12;11.73;;;11.03;;
16689;SDS011;8458;52.220;9.884;2023-10-13T01:55:40;10.67;;;10.07;;
16689;SDS011;8458;52.220;9.884;2023-10-13T01:58:09;11.50;;;10.83;;
16689;SDS011;8458;52.220;9.884;2023-10-13T02:00:40;12.00;;;11.20;;
16689;SDS011;8458;52.220;9.884;2023-10-13T02:03:08;10.90;;;10.20;;
16689;SDS011;8458;52.220;9.884;2023-10-13T02:05:40;11.33;;;10.73;;
16689;SDS011;8458;52.220;9.884;2023-10-13T02:08:09;11.10;;;10.40;;
16689;SDS011;8458;52.220;9.884;2023-10-13T02:10:36;11.10;;;10.20;;
16689;SDS011;8458;52.220;9.884;2023-10-13T02:13:09;11.53;;;10.80;;
16689;SDS011;8458;52.220;9.884;2023-10-13T02:15:40;12.47;;;11.17;;
16689;SDS011;8458;52.220;9.884;2023-10-13T02:18:09;11.73;;;11.03;;
16689;SDS011;8458;52.220;9.884;2023-10-13T02:20:35;12.07;;;11.37;;
16689;SDS011;8458;52.220;9.884;2023-10-13T02:23:09;11.50;;;10.77;;
16689;SDS011;8458;52.220;9.884;2023-10-13T02:25:35;10.27;;;9.73;;
16689;SDS011;8458;52.220;9.884;2023-10-13T02:28:08;9.90;;;9.40;;
16689;SDS011;8458;52.220;9.884;2023-10-13T02:30:38;8.77;;;8.27;;
16689;SDS011;8458;52.220;9.884;2023-10-13T02:33:09;8.23;;;7.73;;
16689;SDS011;8458;52.220;9.884;2023-10-13T02:35:36;7.97;;;7.40;;
16689;SDS011;8458;52.220;9.884;2023-10-13T02:38:15;7.53;;;7.03;;
16689;SDS011;8458;52.220;9.884;2023-10-13T02:40:42;7.50;;;6.73;;
16689;SDS011;8458;52.220;9.884;2023-10-13T02:43:09;7.60;;;7.20;;
16689;SDS011;8458;52.220;9.884;2023-10-13T02:45:35;7.17;;;6.67;;
16689;SDS011;8458;52.220;9.884;2023-10-13T02:48:02;7.30;;;6.70;;
16689;SDS011;8458;52.220;9.884;2023-10-13T02:50:42;6.70;;;6.30;;
16689;SDS011;8458;52.220;9.884;2023-10-13T02:53:09;5.77;;;5.47;;
16689;SDS011;8458;52.220;9.884;2023-10-13T02:55:39;5.77;;;5.40;;
16689;SDS011;8458;52.220;9.884;2023-10-13T02:58:17;5.73;;;5.33;;
16689;SDS011;8458;52.220;9.884;2023-10-13T03:00:42;5.77;;;5.27;;
16689;SDS011;8458;52.220;9.884;2023-10-13T03:03:09;5.43;;;4.90;;
16689;SDS011;8458;52.220;9.884;2023-10-13T03:05:34;5.17;;;4.87;;
16689;SDS011;8458;52.220;9.884;2023-10-13T03:08:04;5.17;;;4.87;;
16689;SDS011;8458;52.220;9.884;2023-10-13T03:10:30;5.00;;;4.70;;
16689;SDS011;8458;52.220;9.884;2023-10-13T03:12:58;5.03;;;4.63;;
16689;SDS011;8458;52.220;9.884;2023-10-13T03:15:25;5.27;;;4.87;;
16689;SDS011;8458;52.220;9.884;2023-10-13T03:17:55;5.17;;;4.87;;
16689;SDS011;8458;52.220;9.884;2023-10-13T03:20:23;5.40;;;5.00;;
16689;SDS011;8458;52.220;9.884;2023-10-13T03:22:56;4.93;;;4.63;;
16689;SDS011;8458;52.220;9.884;2023-10-13T03:25:22;5.13;;;4.60;;
16689;SDS011;8458;52.220;9.884;2023-10-13T03:27:54;5.17;;;4.87;;
16689;SDS011;8458;52.220;9.884;2023-10-13T03:30:31;6.03;;;4.70;;
16689;SDS011;8458;52.220;9.884;2023-10-13T03:33:01;5.37;;;4.93;;
16689;SDS011;8458;52.220;9.884;2023-10-13T03:35:32;5.60;;;5.20;;
16689;SDS011;8458;52.220;9.884;2023-10-13T03:38:03;5.47;;;5.17;;
16689;SDS011;8458;52.220;9.884;2023-10-13T03:40:36;5.60;;;5.20;;
16689;SDS011;8458;52.220;9.884;2023-10-13T03:43:04;5.80;;;5.40;;
16689;SDS011;8458;52.220;9.884;2023-10-13T03:45:35;5.90;;;5.40;;
16689;SDS011;8458;52.220;9.884;2023-10-13T03:48:05;5.33;;;5.03;;
16689;SDS011;8458;52.220;9.884;2023-10-13T03:50:34;5.10;;;4.80;;
16689;SDS011;8458;52.220;9.884;2023-10-13T03:53:01;5.20;;;4.77;;
16689;SDS011;8458;52.220;9.884;2023-10-13T03:55:31;5.47;;;5.07;;
16689;SDS011;8458;52.220;9.884;2023-10-13T03:58:00;5.40;;;5.00;;
16689;SDS011;8458;52.220;9.884;2023-10-13T04:00:28;5.40;;;5.10;;
16689;SDS011;8458;52.220;9.884;2023-10-13T04:02:57;5.07;;;4.70;;
16689;SDS011;8458;52.220;9.884;2023-10-13T04:05:34;4.90;;;4.60;;
16689;SDS011;8458;52.220;9.884;2023-10-13T04:08:06;4.80;;;4.50;;
16689;SDS011;8458;52.220;9.884;2023-10-13T04:10:51;4.67;;;4.37;;
16689;SDS011;8458;52.220;9.884;2023-10-13T04:13:35;4.93;;;4.63;;
16689;SDS011;8458;52.220;9.884;2023-10-13T04:16:33;4.87;;;4.50;;
16689;SDS011;8458;52.220;9.884;2023-10-13T04:19:17;4.97;;;4.57;;
16689;SDS011;8458;52.220;9.884;2023-10-13T04:21:49;4.93;;;4.53;;
16689;SDS011;8458;52.220;9.884;2023-10-13T04:24:25;7.13;;;4.33;;
16689;SDS011;8458;52.220;9.884;2023-10-13T04:27:06;5.10;;;4.70;;
16689;SDS011;8458;52.220;9.884;2023-10-13T04:29:54;4.70;;;4.40;;
16689;SDS011;8458;52.220;9.884;2023-10-13T04:32:35;5.17;;;4.93;;
16689;SDS011;8458;52.220;9.884;2023-10-13T04:35:08;5.37;;;5.00;;
16689;SDS011;8458;52.220;9.884;2023-10-13T04:37:35;5.73;;;5.33;;
16689;SDS011;8458;52.220;9.884;2023-10-13T04:40:15;5.13;;;4.83;;
16689;SDS011;8458;52.220;9.884;2023-10-13T04:42:44;5.13;;;4.83;;
16689;SDS011;8458;52.220;9.884;2023-10-13T04:45:19;5.10;;;4.80;;
16689;SDS011;8458;52.220;9.884;2023-10-13T04:48:15;4.80;;;4.60;;
16689;SDS011;8458;52.220;9.884;2023-10-13T04:50:59;5.87;;;5.47;;
16689;SDS011;8458;52.220;9.884;2023-10-13T04:54:09;6.00;;;5.67;;
16689;SDS011;8458;52.220;9.884;2023-10-13T04:56:37;6.47;;;6.00;;
16689;SDS011;8458;52.220;9.884;2023-10-13T04:59:24;6.27;;;5.97;;
16689;SDS011;8458;52.220;9.884;2023-10-13T05:02:02;5.70;;;5.30;;
16689;SDS011;8458;52.220;9.884;2023-10-13T05:04:47;6.40;;;5.97;;
16689;SDS011;8458;52.220;9.884;2023-10-13T05:07:32;8.50;;;6.40;;
16689;SDS011;8458;52.220;9.884;2023-10-13T05:10:17;6.50;;;6.00;;
16689;SDS011;8458;52.220;9.884;2023-10-13T05:13:01;6.20;;;5.80;;
16689;SDS011;8458;52.220;9.884;2023-10-13T05:15:46;6.10;;;5.80;;
16689;SDS011;8458;52.220;9.884;2023-10-13T05:18:31;6.13;;;5.83;;
16689;SDS011;8458;52.220;9.884;2023-10-13T05:21:15;6.10;;;5.70;;
16689;SDS011;8458;52.220;9.884;2023-10-13T05:24:01;6.83;;;6.10;;
16689;SDS011;8458;52.220;9.884;2023-10-13T05:26:45;6.93;;;6.43;;
16689;SDS011;8458;52.220;9.884;2023-10-13T05:29:28;6.27;;;5.67;;
16689;SDS011;8458;52.220;9.884;2023-10-13T05:32:12;6.47;;;6.07;;
16689;SDS011;8458;52.220;9.884;2023-10-13T05:34:56;6.17;;;5.40;;
16689;SDS011;8458;52.220;9.884;2023-10-13T05:37:40;6.50;;;6.03;;
16689;SDS011;8458;52.220;9.884;2023-10-13T05:40:25;6.20;;;5.80;;
16689;SDS011;8458;52.220;9.884;2023-10-13T05:43:09;6.20;;;5.60;;
16689;SDS011;8458;52.220;9.884;2023-10-13T05:45:55;6.43;;;5.67;;
16689;SDS011;8458;52.220;9.884;2023-10-13T05:48:55;5.70;;;5.40;;
16689;SDS011;8458;52.220;9.884;2023-10-13T05:51:42;6.27;;;5.80;;
16689;SDS011;8458;52.220;9.884;2023-10-13T05:54:23;6.03;;;5.63;;
16689;SDS011;8458;52.220;9.884;2023-10-13T05:57:08;6.03;;;5.67;;
16689;SDS011;8458;52.220;9.884;2023-10-13T05:59:52;6.20;;;5.80;;
16689;SDS011;8458;52.220;9.884;2023-10-13T06:02:47;5.90;;;5.60;;
16689;SDS011;8458;52.220;9.884;2023-10-13T06:05:31;6.13;;;5.63;;
16689;SDS011;8458;52.220;9.884;2023-10-13T06:08:16;5.50;;;5.10;;
16689;SDS011;8458;52.220;9.884;2023-10-13T06:11:03;5.33;;;5.03;;
16689;SDS011;8458;52.220;9.884;2023-10-13T06:13:48;5.73;;;5.37;;
16689;SDS011;8458;52.220;9.884;2023-10-13T06:16:32;6.10;;;5.70;;
16689;SDS011;8458;52.220;9.884;2023-10-13T06:19:16;5.70;;;5.30;;
16689;SDS011;8458;52.220;9.884;2023-10-13T06:22:00;5.67;;;5.20;;
16689;SDS011;8458;52.220;9.884;2023-10-13T06:24:44;5.43;;;5.03;;
16689;SDS011;8458;52.220;9.884;2023-10-13T06:27:28;5.80;;;5.30;;
16689;SDS011;8458;52.220;9.884;2023-10-13T06:30:14;5.63;;;5.23;;
16689;SDS011;8458;52.220;9.884;2023-10-13T06:32:42;6.50;;;6.10;;
16689;SDS011;8458;52.220;9.884;2023-10-13T06:35:11;6.13;;;5.67;;
16689;SDS011;8458;52.220;9.884;2023-10-13T06:37:44;6.43;;;5.93;;
16689;SDS011;8458;52.220;9.884;2023-10-13T06:40:10;6.87;;;6.10;;
16689;SDS011;8458;52.220;9.884;2023-10-13T06:42:47;6.27;;;5.87;;
16689;SDS011;8458;52.220;9.884;2023-10-13T06:45:15;6.17;;;5.77;;
16689;SDS011;8458;52.220;9.884;2023-10-13T06:47:43;7.20;;;6.70;;
16689;SDS011;8458;52.220;9.884;2023-10-13T06:50:09;7.17;;;6.67;;
16689;SDS011;8458;52.220;9.884;2023-10-13T06:52:40;6.57;;;6.17;;
16689;SDS011;8458;52.220;9.884;2023-10-13T06:55:07;11.60;;;5.87;;
16689;SDS011;8458;52.220;9.884;2023-10-13T06:57:36;6.67;;;6.17;;
16689;SDS011;8458;52.220;9.884;2023-10-13T07:00:08;6.40;;;5.90;;
16689;SDS011;8458;52.220;9.884;2023-10-13T07:02:45;6.47;;;5.97;;
16689;SDS011;8458;52.220;9.884;2023-10-13T07:05:12;5.80;;;5.40;;
16689;SDS011;8458;52.220;9.884;2023-10-13T07:07:39;6.70;;;6.20;;
16689;SDS011;8458;52.220;9.884;2023-10-13T07:10:07;6.20;;;5.80;;
16689;SDS011;8458;52.220;9.884;2023-10-13T07:12:34;6.40;;;5.90;;
16689;SDS011;8458;52.220;9.884;2023-10-13T07:15:02;6.63;;;6.13;;
16689;SDS011;8458;52.220;9.884;2023-10-13T07:17:30;6.10;;;5.70;;
16689;SDS011;8458;52.220;9.884;2023-10-13T07:20:05;6.47;;;6.03;;
16689;SDS011;8458;52.220;9.884;2023-10-13T07:22:39;6.17;;;5.77;;
16689;SDS011;8458;52.220;9.884;2023-10-13T07:25:19;6.13;;;5.60;;
16689;SDS011;8458;52.220;9.884;2023-10-13T07:27:49;6.23;;;5.63;;
16689;SDS011;8458;52.220;9.884;2023-10-13T07:30:15;6.20;;;5.60;;
16689;SDS011;8458;52.220;9.884;2023-10-13T07:32:45;7.13;;;5.87;;
16689;SDS011;8458;52.220;9.884;2023-10-13T07:35:13;6.17;;;5.57;;
16689;SDS011;8458;52.220;9.884;2023-10-13T07:37:42;5.47;;;5.13;;
16689;SDS011;8458;52.220;9.884;2023-10-13T07:40:10;5.57;;;5.07;;
16689;SDS011;8458;52.220;9.884;2023-10-13T07:43:04;5.13;;;4.70;;
16689;SDS011;8458;52.220;9.884;2023-10-13T07:45:35;5.23;;;4.83;;
16689;SDS011;8458;52.220;9.884;2023-10-13T07:48:02;5.50;;;5.10;;
16689;SDS011;8458;52.220;9.884;2023-10-13T07:50:38;5.20;;;4.80;;
16689;SDS011;8458;52.220;9.884;2023-10-13T07:53:05;4.67;;;4.43;;
16689;SDS011;8458;52.220;9.884;2023-10-13T07:55:44;4.80;;;4.50;;
16689;SDS011;8458;52.220;9.884;2023-10-13T07:58:12;4.70;;;4.40;;
16689;SDS011;8458;52.220;9.884;2023-10-13T08:00:38;4.83;;;4.43;;
16689;SDS011;8458;52.220;9.884;2023-10-13T08:03:12;4.63;;;4.27;;
16689;SDS011;8458;52.220;9.884;2023-10-13T08:05:58;4.70;;;4.40;;
16689;SDS011;8458;52.220;9.884;2023-10-13T08:08:29;4.20;;;3.80;;
16689;SDS011;8458;52.220;9.884;2023-10-13T08:11:00;4.00;;;3.70;;
16689;SDS011;8458;52.220;9.884;2023-10-13T08:13:33;4.00;;;3.57;;
16689;SDS011;8458;52.220;9.884;2023-10-13T08:16:02;4.67;;;3.80;;
16689;SDS011;8458;52.220;9.884;2023-10-13T08:18:33;3.80;;;3.50;;
16689;SDS011;8458;52.220;9.884;2023-10-13T08:21:02;3.83;;;3.53;;
16689;SDS011;8458;52.220;9.884;2023-10-13T08:23:30;3.40;;;3.20;;
16689;SDS011;8458;52.220;9.884;2023-10-13T08:26:20;3.37;;;3.00;;
16689;SDS011;8458;52.220;9.884;2023-10-13T08:29:17;3.83;;;3.03;;
16689;SDS011;8458;52.220;9.884;2023-10-13T08:32:01;2.97;;;2.77;;
16689;SDS011;8458;52.220;9.884;2023-10-13T08:34:46;2.93;;;2.73;;
16689;SDS011;8458;52.220;9.884;2023-10-13T08:37:32;2.83;;;2.60;;
16689;SDS011;8458;52.220;9.884;2023-10-13T08:40:13;2.77;;;2.57;;
16689;SDS011;8458;52.220;9.884;2023-10-13T08:43:02;2.70;;;2.20;;
16689;SDS011;8458;52.220;9.884;2023-10-13T08:45:38;2.97;;;2.60;;
16689;SDS011;8458;52.220;9.884;2023-10-13T08:48:19;2.63;;;2.20;;
16689;SDS011;8458;52.220;9.884;2023-10-13T08:50:51;2.20;;;2.10;;
16689;SDS011;8458;52.220;9.884;2023-10-13T08:53:22;2.50;;;2.30;;
16689;SDS011;8458;52.220;9.884;2023-10-13T08:55:51;2.50;;;2.30;;
16689;SDS011;8458;52.220;9.884;2023-10-13T08:58:31;2.70;;;2.40;;
16689;SDS011;8458;52.220;9.884;2023-10-13T09:01:16;2.40;;;2.20;;
16689;SDS011;8458;52.220;9.884;2023-10-13T09:03:59;3.40;;;2.20;;
16689;SDS011;8458;52.220;9.884;2023-10-13T09:06:46;3.30;;;1.97;;
16689;SDS011;8458;52.220;9.884;2023-10-13T09:09:27;2.23;;;2.03;;
16689;SDS011;8458;52.220;9.884;2023-10-13T09:11:59;2.40;;;2.20;;
16689;SDS011;8458;52.220;9.884;2023-10-13T09:14:33;2.80;;;2.43;;
16689;SDS011;8458;52.220;9.884;2023-10-13T09:17:01;3.97;;;2.23;;
16689;SDS011;8458;52.220;9.884;2023-10-13T09:19:58;2.23;;;2.00;;
16689;SDS011;8458;52.220;9.884;2023-10-13T09:22:25;2.80;;;2.20;;
16689;SDS011;8458;52.220;9.884;2023-10-13T09:24:55;2.80;;;1.97;;
16689;SDS011;8458;52.220;9.884;2023-10-13T09:27:24;2.40;;;2.20;;
16689;SDS011;8458;52.220;9.884;2023-10-13T09:29:55;3.60;;;2.13;;
16689;SDS011;8458;52.220;9.884;2023-10-13T09:32:21;3.90;;;2.20;;
16689;SDS011;8458;52.220;9.884;2023-10-13T09:34:48;2.33;;;2.13;;
16689;SDS011;8458;52.220;9.884;2023-10-13T09:37:15;2.67;;;2.33;;
16689;SDS011;8458;52.220;9.884;2023-10-13T09:39:46;2.33;;;2.17;;
16689;SDS011;8458;52.220;9.884;2023-10-13T09:42:21;2.57;;;2.00;;
16689;SDS011;8458;52.220;9.884;2023-10-13T09:44:48;4.17;;;2.33;;
16689;SDS011;8458;52.220;9.884;2023-10-13T09:47:21;2.87;;;2.20;;
16689;SDS011;8458;52.220;9.884;2023-10-13T09:49:58;4.00;;;2.13;;
16689;SDS011;8458;52.220;9.884;2023-10-13T09:52:30;4.07;;;2.30;;
16689;SDS011;8458;52.220;9.884;2023-10-13T09:55:04;3.30;;;2.10;;
16689;SDS011;8458;52.220;9.884;2023-10-13T09:57:41;3.47;;;2.30;;
16689;SDS011;8458;52.220;9.884;2023-10-13T10:00:15;3.37;;;2.10;;
16689;SDS011;8458;52.220;9.884;2023-10-13T10:03:09;3.80;;;2.30;;
16689;SDS011;8458;52.220;9.884;2023-10-13T10:05:54;3.20;;;2.40;;
16689;SDS011;8458;52.220;9.884;2023-10-13T10:08:28;3.17;;;2.23;;
16689;SDS011;8458;52.220;9.884;2023-10-13T10:11:00;2.73;;;2.27;;
16689;SDS011;8458;52.220;9.884;2023-10-13T10:13:42;3.60;;;2.47;;
16689;SDS011;8458;52.220;9.884;2023-10-13T10:16:20;3.33;;;2.03;;
16689;SDS011;8458;52.220;9.884;2023-10-13T10:19:02;4.70;;;2.80;;
16689;SDS011;8458;52.220;9.884;2023-10-13T10:21:33;5.00;;;2.60;;
16689;SDS011;8458;52.220;9.884;2023-10-13T10:24:00;4.23;;;2.87;;
16689;SDS011;8458;52.220;9.884;2023-10-13T10:26:38;4.37;;;2.67;;
16689;SDS011;8458;52.220;9.884;2023-10-13T10:29:18;5.80;;;2.80;;
16689;SDS011;8458;52.220;9.884;2023-10-13T10:31:44;6.53;;;3.30;;
16689;SDS011;8458;52.220;9.884;2023-10-13T10:34:14;6.57;;;3.33;;
16689;SDS011;8458;52.220;9.884;2023-10-13T10:36:44;5.67;;;2.80;;
16689;SDS011;8458;52.220;9.884;2023-10-13T10:39:12;5.07;;;3.23;;
16689;SDS011;8458;52.220;9.884;2023-10-13T10:41:40;5.07;;;2.93;;
16689;SDS011;8458;52.220;9.884;2023-10-13T10:44:10;4.30;;;2.77;;
16689;SDS011;8458;52.220;9.884;2023-10-13T10:46:42;4.43;;;2.57;;
16689;SDS011;8458;52.220;9.884;2023-10-13T10:49:17;4.23;;;2.97;;
16689;SDS011;8458;52.220;9.884;2023-10-13T10:51:52;3.97;;;2.87;;
16689;SDS011;8458;52.220;9.884;2023-10-13T10:54:26;5.57;;;2.80;;
16689;SDS011;8458;52.220;9.884;2023-10-13T10:56:56;6.07;;;3.13;;
16689;SDS011;8458;52.220;9.884;2023-10-13T10:59:35;4.47;;;3.10;;
16689;SDS011;8458;52.220;9.884;2023-10-13T11:02:04;4.33;;;3.33;;
16689;SDS011;8458;52.220;9.884;2023-10-13T11:04:33;4.83;;;2.73;;
16689;SDS011;8458;52.220;9.884;2023-10-13T11:07:05;6.70;;;3.43;;
16689;SDS011;8458;52.220;9.884;2023-10-13T11:09:33;6.30;;;2.97;;
16689;SDS011;8458;52.220;9.884;2023-10-13T11:12:11;6.23;;;3.10;;
16689;SDS011;8458;52.220;9.884;2023-10-13T11:14:41;3.60;;;2.87;;
16689;SDS011;8458;52.220;9.884;2023-10-13T11:17:18;5.33;;;3.37;;
16689;SDS011;8458;52.220;9.884;2023-10-13T11:19:49;6.40;;;3.50;;
16689;SDS011;8458;52.220;9.884;2023-10-13T11:22:17;4.03;;;3.20;;
16689;SDS011;8458;52.220;9.884;2023-10-13T11:24:58;5.37;;;3.27;;
16689;SDS011;8458;52.220;9.884;2023-10-13T11:27:29;6.20;;;3.37;;
16689;SDS011;8458;52.220;9.884;2023-10-13T11:30:20;5.60;;;3.40;;
16689;SDS011;8458;52.220;9.884;2023-10-13T11:32:57;4.20;;;3.27;;
16689;SDS011;8458;52.220;9.884;2023-10-13T11:35:30;5.63;;;3.13;;
16689;SDS011;8458;52.220;9.884;2023-10-13T11:38:14;4.93;;;3.60;;
16689;SDS011;8458;52.220;9.884;2023-10-13T11:40:49;5.63;;;3.50;;
16689;SDS011;8458;52.220;9.884;2023-10-13T11:43:32;5.90;;;3.63;;
16689;SDS011;8458;52.220;9.884;2023-10-13T11:46:05;6.23;;;3.57;;
16689;SDS011;8458;52.220;9.884;2023-10-13T11:48:39;6.07;;;3.83;;
16689;SDS011;8458;52.220;9.884;2023-10-13T11:51:08;4.10;;;3.70;;
16689;SDS011;8458;52.220;9.884;2023-10-13T11:53:42;5.73;;;3.50;;
16689;SDS011;8458;52.220;9.884;2023-10-13T11:56:10;7.73;;;3.93;;
16689;SDS011;8458;52.220;9.884;2023-10-13T11:58:37;6.47;;;3.87;;
16689;SDS011;8458;52.220;9.884;2023-10-13T12:01:05;8.43;;;3.97;;
16689;SDS011;8458;52.220;9.884;2023-10-13T12:03:47;4.37;;;3.43;;
16689;SDS011;8458;52.220;9.884;2023-10-13T12:06:32;5.97;;;3.50;;
16689;SDS011;8458;52.220;9.884;2023-10-13T12:09:11;6.33;;;3.47;;
16689;SDS011;8458;52.220;9.884;2023-10-13T12:11:54;10.57;;;4.20;;
16689;SDS011;8458;52.220;9.884;2023-10-13T12:14:25;7.83;;;3.60;;
16689;SDS011;8458;52.220;9.884;2023-10-13T12:16:54;5.87;;;3.77;;
16689;SDS011;8458;52.220;9.884;2023-10-13T12:19:29;9.00;;;3.57;;
16689;SDS011;8458;52.220;9.884;2023-10-13T12:21:57;5.43;;;3.40;;
16689;SDS011;8458;52.220;9.884;2023-10-13T12:24:23;9.77;;;3.80;;
16689;SDS011;8458;52.220;9.884;2023-10-13T12:27:05;7.27;;;3.57;;
16689;SDS011;8458;52.220;9.884;2023-10-13T12:29:43;8.80;;;3.77;;
16689;SDS011;8458;52.220;9.884;2023-10-13T12:32:11;6.97;;;3.90;;
16689;SDS011;8458;52.220;9.884;2023-10-13T12:34:40;4.30;;;3.67;;
16689;SDS011;8458;52.220;9.884;2023-10-13T12:37:25;4.80;;;3.80;;
16689;SDS011;8458;52.220;9.884;2023-10-13T12:40:16;6.70;;;3.80;;
16689;SDS011;8458;52.220;9.884;2023-10-13T12:43:02;7.00;;;4.23;;
16689;SDS011;8458;52.220;9.884;2023-10-13T12:45:47;6.87;;;3.57;;
16689;SDS011;8458;52.220;9.884;2023-10-13T12:48:33;6.70;;;3.73;;
16689;SDS011;8458;52.220;9.884;2023-10-13T12:51:19;5.37;;;4.23;;
16689;SDS011;8458;52.220;9.884;2023-10-13T12:53:46;6.40;;;4.50;;
16689;SDS011;8458;52.220;9.884;2023-10-13T12:56:13;4.20;;;3.60;;
16689;SDS011;8458;52.220;9.884;2023-10-13T12:58:40;6.10;;;3.63;;
16689;SDS011;8458;52.220;9.884;2023-10-13T13:01:07;5.70;;;3.63;;
16689;SDS011;8458;52.220;9.884;2023-10-13T13:03:33;11.13;;;3.87;;
16689;SDS011;8458;52.220;9.884;2023-10-13T13:06:00;6.53;;;4.50;;
16689;SDS011;8458;52.220;9.884;2023-10-13T13:08:33;4.57;;;3.83;;
16689;SDS011;8458;52.220;9.884;2023-10-13T13:11:00;15.27;;;3.70;;
16689;SDS011;8458;52.220;9.884;2023-10-13T13:13:27;4.93;;;4.00;;
16689;SDS011;8458;52.220;9.884;2023-10-13T13:15:54;5.67;;;4.27;;
16689;SDS011;8458;52.220;9.884;2023-10-13T13:18:21;5.33;;;3.83;;
16689;SDS011;8458;52.220;9.884;2023-10-13T13:20:48;6.27;;;3.70;;
16689;SDS011;8458;52.220;9.884;2023-10-13T13:23:18;8.03;;;4.20;;
16689;SDS011;8458;52.220;9.884;2023-10-13T13:25:48;7.57;;;4.07;;
16689;SDS011;8458;52.220;9.884;2023-10-13T13:28:14;6.33;;;3.90;;
16689;SDS011;8458;52.220;9.884;2023-10-13T13:30:41;7.53;;;3.60;;
16689;SDS011;8458;52.220;9.884;2023-10-13T13:33:07;7.40;;;4.07;;
16689;SDS011;8458;52.220;9.884;2023-10-13T13:35:37;5.67;;;3.97;;
16689;SDS011;8458;52.220;9.884;2023-10-13T13:38:03;6.13;;;4.17;;
16689;SDS011;8458;52.220;9.884;2023-10-13T13:40:36;5.80;;;3.90;;
16689;SDS011;8458;52.220;9.884;2023-10-13T13:43:04;6.43;;;3.93;;
16689;SDS011;8458;52.220;9.884;2023-10-13T13:45:31;8.57;;;3.87;;
16689;SDS011;8458;52.220;9.884;2023-10-13T13:47:59;8.50;;;4.17;;
16689;SDS011;8458;52.220;9.884;2023-10-13T13:50:32;6.20;;;4.13;;
16689;SDS011;8458;52.220;9.884;2023-10-13T13:53:04;7.63;;;4.20;;
16689;SDS011;8458;52.220;9.884;2023-10-13T13:55:34;4.50;;;4.10;;
16689;SDS011;8458;52.220;9.884;2023-10-13T13:58:06;5.47;;;4.47;;
16689;SDS011;8458;52.220;9.884;2023-10-13T14:00:34;8.23;;;4.17;;
16689;SDS011;8458;52.220;9.884;2023-10-13T14:03:04;8.13;;;4.20;;
16689;SDS011;8458;52.220;9.884;2023-10-13T14:05:30;5.50;;;3.90;;
16689;SDS011;8458;52.220;9.884;2023-10-13T14:07:57;6.27;;;4.50;;
16689;SDS011;8458;52.220;9.884;2023-10-13T14:10:23;6.63;;;3.70;;
16689;SDS011;8458;52.220;9.884;2023-10-13T14:12:59;5.73;;;3.80;;
16689;SDS011;8458;52.220;9.884;2023-10-13T14:15:39;6.47;;;4.10;;
16689;SDS011;8458;52.220;9.884;2023-10-13T14:18:11;7.03;;;4.17;;
16689;SDS011;8458;52.220;9.884;2023-10-13T14:20:40;5.30;;;3.67;;
16689;SDS011;8458;52.220;9.884;2023-10-13T14:23:07;6.57;;;3.60;;
16689;SDS011;8458;52.220;9.884;2023-10-13T14:25:37;5.20;;;3.90;;
16689;SDS011;8458;52.220;9.884;2023-10-13T14:28:04;8.10;;;4.13;;
16689;SDS011;8458;52.220;9.884;2023-10-13T14:30:31;6.67;;;4.27;;
16689;SDS011;8458;52.220;9.884;2023-10-13T14:32:59;9.17;;;4.27;;
16689;SDS011;8458;52.220;9.884;2023-10-13T14:35:26;6.87;;;4.20;;
16689;SDS011;8458;52.220;9.884;2023-10-13T14:37:53;6.87;;;4.17;;
16689;SDS011;8458;52.220;9.884;2023-10-13T14:40:19;9.40;;;4.07;;
16689;SDS011;8458;52.220;9.884;2023-10-13T14:42:46;5.90;;;3.80;;
16689;SDS011;8458;52.220;9.884;2023-10-13T14:45:13;6.80;;;3.23;;
16689;SDS011;8458;52.220;9.884;2023-10-13T14:47:41;8.20;;;3.93;;
16689;SDS011;8458;52.220;9.884;2023-10-13T14:50:10;4.80;;;4.10;;
16689;SDS011;8458;52.220;9.884;2023-10-13T14:52:44;9.40;;;4.10;;
16689;SDS011;8458;52.220;9.884;2023-10-13T14:55:11;7.47;;;5.07;;
16689;SDS011;8458;52.220;9.884;2023-10-13T14:57:44;4.23;;;3.33;;
16689;SDS011;8458;52.220;9.884;2023-10-13T15:00:11;9.07;;;4.17;;
16689;SDS011;8458;52.220;9.884;2023-10-13T15:02:39;9.27;;;4.20;;
16689;SDS011;8458;52.220;9.884;2023-10-13T15:05:09;6.50;;;4.30;;
16689;SDS011;8458;52.220;9.884;2023-10-13T15:07:42;5.00;;;3.57;;
16689;SDS011;8458;52.220;9.884;2023-10-13T15:10:10;6.73;;;4.33;;
16689;SDS011;8458;52.220;9.884;2023-10-13T15:12:39;5.27;;;4.43;;
16689;SDS011;8458;52.220;9.884;2023-10-13T15:15:07;6.27;;;3.90;;
16689;SDS011;8458;52.220;9.884;2023-10-13T15:17:38;7.23;;;3.93;;
16689;SDS011;8458;52.220;9.884;2023-10-13T15:20:05;6.77;;;4.40;;
16689;SDS011;8458;52.220;9.884;2023-10-13T15:22:36;7.03;;;3.97;;
16689;SDS011;8458;52.220;9.884;2023-10-13T15:25:03;5.43;;;4.17;;
16689;SDS011;8458;52.220;9.884;2023-10-13T15:27:42;6.47;;;4.30;;
16689;SDS011;8458;52.220;9.884;2023-10-13T15:30:10;6.50;;;4.10;;
16689;SDS011;8458;52.220;9.884;2023-10-13T15:32:47;6.07;;;4.60;;
16689;SDS011;8458;52.220;9.884;2023-10-13T15:35:14;6.30;;;4.13;;
16689;SDS011;8458;52.220;9.884;2023-10-13T15:37:42;6.10;;;4.33;;